Time;durP1;ratioP1;P1;durP2;ratioP2;P2;SDS_P1;SDS_P2;PMS_P1;PMS_P2;Temp;Humidity;BMP_temperature;BMP_pressure;BME280_temperature;BME280_humidity;BME280_pressure;Samples;Min_cycle;Max_cycle;Signal;HPM_P1;HPM_P2
2020/12/29 00:01:56;;;;;;;1.92;0.70;;;5.50;85.10;;;;;;4993331;28;20082;-86
2020/12/29 00:04:25;;;;;;;2.22;0.50;;;5.50;85.50;;;;;;4993098;28;20133;-86
2020/12/29 00:06:53;;;;;;;1.92;0.73;;;5.50;85.30;;;;;;4997280;28;20050;-84
2020/12/29 00:09:25;;;;;;;1.90;0.70;;;5.60;85.20;;;;;;4996636;28;20082;-86
2020/12/29 00:11:53;;;;;;;1.52;0.60;;;5.60;85.20;;;;;;4992961;28;20086;-85
2020/12/29 00:14:20;;;;;;;1.77;0.70;;;5.50;85.80;;;;;;4991667;28;20136;-85
2020/12/29 00:16:47;;;;;;;2.05;0.70;;;5.60;86.00;;;;;;4992915;28;20054;-85
2020/12/29 00:19:22;;;;;;;1.52;0.50;;;5.50;86.30;;;;;;4994424;28;20084;-82
2020/12/29 00:21:50;;;;;;;1.60;0.70;;;5.40;87.40;;;;;;4994015;28;20141;-83
2020/12/29 00:24:30;;;;;;;1.63;0.88;;;5.40;87.30;;;;;;4993737;28;20092;-87
2020/12/29 00:26:58;;;;;;;1.40;0.60;;;5.60;87.50;;;;;;4993371;28;20051;-87
2020/12/29 00:29:25;;;;;;;1.77;0.80;;;5.50;87.60;;;;;;4992934;28;20054;-87
2020/12/29 00:31:51;;;;;;;1.42;0.70;;;5.40;88.50;;;;;;4991774;28;20133;-86
2020/12/29 00:34:19;;;;;;;4.75;2.22;;;5.50;88.20;;;;;;4991445;28;20121;-87
2020/12/29 00:36:45;;;;;;;3.50;1.38;;;5.50;87.80;;;;;;4991118;28;20461;-85
2020/12/29 00:39:12;;;;;;;2.15;0.75;;;5.40;87.90;;;;;;4991068;28;20105;-83
2020/12/29 00:41:39;;;;;;;1.25;0.57;;;5.40;87.90;;;;;;4990324;28;20173;-82
2020/12/29 00:44:07;;;;;;;1.70;0.70;;;5.50;87.40;;;;;;4991206;28;20583;-81
2020/12/29 00:46:33;;;;;;;3.05;0.80;;;5.50;87.30;;;;;;4991219;28;20046;-81
2020/12/29 00:49:00;;;;;;;1.70;0.60;;;5.50;87.60;;;;;;4991088;28;20054;-81
2020/12/29 00:51:28;;;;;;;2.67;0.63;;;5.40;87.50;;;;;;4991402;28;20137;-83
2020/12/29 00:53:58;;;;;;;1.25;0.50;;;5.40;87.80;;;;;;4991741;28;20076;-84
2020/12/29 00:56:25;;;;;;;4.90;1.50;;;5.40;87.70;;;;;;4991095;28;20496;-81
2020/12/29 00:58:51;;;;;;;2.80;1.00;;;5.40;88.00;;;;;;4990342;28;20389;-81
2020/12/29 01:01:18;;;;;;;1.48;0.60;;;5.40;88.20;;;;;;4989566;28;20125;-83
2020/12/29 01:03:45;;;;;;;0.85;0.50;;;5.50;87.90;;;;;;4990782;28;20050;-89
2020/12/29 01:06:12;;;;;;;1.73;0.60;;;5.60;87.40;;;;;;4991005;28;20090;-87
2020/12/29 01:08:40;;;;;;;1.75;0.60;;;5.60;87.20;;;;;;4991007;28;20046;-86
2020/12/29 01:11:06;;;;;;;1.38;0.57;;;5.60;87.40;;;;;;4990660;28;20129;-87
2020/12/29 01:13:33;;;;;;;1.35;0.57;;;5.70;87.50;;;;;;4989672;28;20062;-85
2020/12/29 01:15:59;;;;;;;1.80;0.52;;;5.60;87.60;;;;;;4989823;28;20137;-85
2020/12/29 01:18:26;;;;;;;1.63;0.73;;;5.70;87.10;;;;;;4990494;28;20673;-85
2020/12/29 01:20:53;;;;;;;1.52;0.75;;;5.80;87.00;;;;;;4989982;28;20476;-84
2020/12/29 01:23:20;;;;;;;3.90;1.30;;;5.70;87.10;;;;;;4990920;28;20520;-86
2020/12/29 01:25:48;;;;;;;1.35;0.52;;;5.70;87.50;;;;;;4989777;28;20042;-85
2020/12/29 01:28:15;;;;;;;1.20;0.43;;;5.80;88.00;;;;;;4990138;28;20050;-85
2020/12/29 01:30:43;;;;;;;1.55;0.57;;;5.90;86.90;;;;;;4990066;28;20517;-86
2020/12/29 01:33:09;;;;;;;1.40;0.60;;;5.80;86.80;;;;;;4989948;28;20054;-86
2020/12/29 01:35:36;;;;;;;2.28;0.50;;;5.90;87.00;;;;;;4990105;28;20514;-85
2020/12/29 01:38:04;;;;;;;1.48;0.68;;;6.00;86.90;;;;;;4989557;28;20061;-85
2020/12/29 01:40:31;;;;;;;1.10;0.40;;;5.80;86.70;;;;;;4988468;28;20463;-86
2020/12/29 01:42:58;;;;;;;1.30;0.60;;;5.90;86.70;;;;;;4979996;28;20054;-88
2020/12/29 01:45:25;;;;;;;1.15;0.50;;;5.90;87.00;;;;;;4991497;28;20412;-87
2020/12/29 01:47:53;;;;;;;2.55;0.50;;;6.00;86.70;;;;;;4990362;28;20086;-87
2020/12/29 01:50:23;;;;;;;1.05;0.60;;;6.00;86.40;;;;;;4990858;28;20116;-87
2020/12/29 01:52:58;;;;;;;1.27;0.50;;;6.00;86.40;;;;;;4991153;28;20598;-87
2020/12/29 01:55:25;;;;;;;1.30;0.60;;;5.90;86.90;;;;;;4990620;28;20133;-87
2020/12/29 01:57:53;;;;;;;0.90;0.40;;;5.90;87.00;;;;;;4990765;28;20061;-86
2020/12/29 02:00:20;;;;;;;0.80;0.40;;;5.90;86.80;;;;;;4990794;28;20117;-87
2020/12/29 02:02:49;;;;;;;0.50;0.30;;;5.90;87.00;;;;;;4988239;28;20080;-88
2020/12/29 02:05:15;;;;;;;0.60;0.30;;;5.90;86.70;;;;;;4989352;28;20137;-87
2020/12/29 02:07:43;;;;;;;0.77;0.40;;;5.90;86.80;;;;;;4989622;28;20380;-86
2020/12/29 02:10:09;;;;;;;1.25;0.40;;;5.90;86.90;;;;;;4990577;28;20125;-87
2020/12/29 02:12:41;;;;;;;2.92;0.45;;;5.80;87.40;;;;;;4989935;28;20501;-87
2020/12/29 02:15:08;;;;;;;1.35;0.35;;;5.90;87.30;;;;;;4991670;28;20104;-86
2020/12/29 02:17:36;;;;;;;1.13;0.30;;;5.90;87.50;;;;;;4990893;28;20575;-86
2020/12/29 02:20:04;;;;;;;1.50;0.60;;;5.90;87.50;;;;;;4990357;28;20050;-85
2020/12/29 02:26:25;;;;;;;0.60;0.30;;;5.90;87.60;;;;;;4994050;28;20058;-84
2020/12/29 02:28:52;;;;;;;1.75;0.40;;;5.90;87.80;;;;;;4989922;28;20389;-85
2020/12/29 02:31:25;;;;;;;0.98;0.30;;;5.90;88.10;;;;;;4993112;28;20137;-83
2020/12/29 02:33:54;;;;;;;0.77;0.30;;;5.90;87.80;;;;;;5014486;28;20058;-82
2020/12/29 02:36:25;;;;;;;0.45;0.20;;;5.90;87.90;;;;;;5014178;28;20030;-84
2020/12/29 02:38:52;;;;;;;0.55;0.22;;;6.00;87.80;;;;;;4994920;28;20053;-82
2020/12/29 02:41:21;;;;;;;0.20;0.20;;;5.90;88.10;;;;;;5002245;28;20057;-85
2020/12/29 02:44:09;;;;;;;2.75;0.40;;;6.00;88.60;;;;;;4979819;28;20072;-85
2020/12/29 06:07:12;;;;;;;2.17;0.52;;;5.30;93.90;;;;;;5870122;23;19937;-81
2020/12/29 06:09:47;;;;;;;2.65;1.00;;;5.20;94.30;;;;;;5021909;28;20064;-81
2020/12/29 06:12:31;;;;;;;3.80;0.65;;;5.10;94.80;;;;;;5002936;28;20058;-80
2020/12/29 08:23:12;;;;;;;2.75;0.70;;;5.30;94.20;;;;;;5971789;23;20048;-94
2020/12/29 08:25:39;;;;;;;2.35;0.77;;;5.50;93.80;;;;;;4999189;28;20376;-93
2020/12/29 08:54:13;;;;;;;1.88;0.50;;;5.80;91.90;;;;;;5763177;23;20038;-89
2020/12/29 08:56:41;;;;;;;1.77;0.40;;;5.90;91.50;;;;;;5022757;28;20073;-88
2020/12/29 08:59:12;;;;;;;1.63;0.50;;;5.90;91.70;;;;;;5024719;28;20077;-89
2020/12/29 11:00:09;;;;;;;1.50;0.60;;;5.30;95.90;;;;;;5201549;23;20050;-93
2020/12/29 11:02:41;;;;;;;1.27;0.45;;;5.50;96.10;;;;;;4994603;28;20054;-92
2020/12/29 11:31:25;;;;;;;1.70;0.40;;;5.20;95.30;;;;;;5745644;23;20079;-91
2020/12/29 11:33:58;;;;;;;1.00;0.40;;;5.40;95.30;;;;;;4992534;28;20054;-89
2020/12/29 11:36:25;;;;;;;3.13;0.80;;;5.30;95.50;;;;;;5006905;28;20061;-89
2020/12/29 11:38:51;;;;;;;0.98;0.40;;;5.30;95.80;;;;;;4993307;28;20552;-88
2020/12/29 11:41:18;;;;;;;1.77;0.50;;;5.40;95.80;;;;;;4994092;28;20146;-92
2020/12/29 11:43:51;;;;;;;0.73;0.40;;;5.40;95.50;;;;;;4994513;28;20389;-90
2020/12/29 11:46:18;;;;;;;1.45;0.40;;;5.50;95.60;;;;;;4993243;28;20113;-93
2020/12/29 11:48:46;;;;;;;1.42;0.50;;;5.40;95.60;;;;;;4957035;28;20065;-91
2020/12/29 11:51:12;;;;;;;2.05;0.50;;;5.50;95.80;;;;;;4975599;28;20551;-91
2020/12/29 11:53:40;;;;;;;2.38;0.60;;;5.70;95.50;;;;;;4993293;28;20551;-91
2020/12/29 11:56:10;;;;;;;1.67;0.60;;;5.70;95.50;;;;;;4992697;28;20061;-92
2020/12/29 11:58:37;;;;;;;2.35;0.60;;;5.90;95.70;;;;;;4992341;28;20488;-93
2020/12/29 12:01:04;;;;;;;1.77;0.70;;;5.80;96.00;;;;;;4992666;28;20070;-92
2020/12/29 12:03:31;;;;;;;2.30;1.13;;;5.70;95.70;;;;;;4993498;28;20054;-94
2020/12/29 12:05:58;;;;;;;3.05;0.90;;;5.80;95.90;;;;;;5000645;28;20137;-93
2020/12/29 12:08:25;;;;;;;25.13;10.45;;;5.90;95.70;;;;;;4992669;28;20066;-93
2020/12/29 12:10:51;;;;;;;5.88;2.35;;;5.90;95.90;;;;;;4993263;28;20054;-92
2020/12/29 12:13:18;;;;;;;1.65;0.60;;;6.00;95.90;;;;;;4996215;28;20050;-93
2020/12/29 12:15:45;;;;;;;2.03;0.68;;;6.00;95.70;;;;;;4991577;28;20053;-93
2020/12/29 12:18:11;;;;;;;2.40;0.70;;;6.00;95.70;;;;;;4975690;28;20082;-90
2020/12/29 12:20:38;;;;;;;2.20;0.80;;;6.10;95.70;;;;;;4995143;28;20058;-93
2020/12/29 12:23:05;;;;;;;1.58;0.60;;;6.20;95.70;;;;;;5011620;28;20188;-91
2020/12/29 12:25:32;;;;;;;1.00;0.52;;;6.20;95.70;;;;;;4972995;28;20142;-94
2020/12/29 12:28:00;;;;;;;3.72;0.80;;;6.30;95.30;;;;;;4971884;28;20153;-89
2020/12/29 12:30:27;;;;;;;3.40;0.70;;;6.20;95.60;;;;;;4975825;28;20125;-89
2020/12/29 12:32:54;;;;;;;1.42;0.60;;;6.20;95.50;;;;;;5006277;28;20141;-93
2020/12/29 12:35:21;;;;;;;2.25;0.70;;;6.30;95.50;;;;;;4977812;28;20066;-90
2020/12/29 12:37:47;;;;;;;1.52;0.60;;;6.30;95.30;;;;;;4976787;28;20492;-92
2020/12/29 12:40:18;;;;;;;2.10;0.70;;;6.30;95.10;;;;;;5000391;28;20077;-92
2020/12/29 12:42:45;;;;;;;2.10;0.80;;;6.20;95.20;;;;;;4980398;28;20114;-92
2020/12/29 12:45:11;;;;;;;2.65;1.13;;;6.00;95.80;;;;;;5003052;28;20519;-89
2020/12/29 12:47:42;;;;;;;3.17;0.88;;;5.90;95.90;;;;;;4998008;28;20117;-92
2020/12/29 12:50:11;;;;;;;2.33;0.80;;;5.90;96.30;;;;;;4975726;28;20397;-88
2020/12/29 12:52:37;;;;;;;1.83;0.90;;;5.80;96.00;;;;;;4992142;28;20078;-89
2020/12/29 12:55:04;;;;;;;3.10;1.00;;;5.80;96.10;;;;;;4991011;28;20050;-90
2020/12/29 12:57:31;;;;;;;2.55;0.90;;;5.80;96.10;;;;;;4993489;28;20133;-89
2020/12/29 12:59:58;;;;;;;4.15;1.13;;;5.90;96.30;;;;;;4990402;28;20050;-88
2020/12/29 13:02:25;;;;;;;2.88;0.95;;;6.10;95.90;;;;;;4997903;28;20056;-89
2020/12/29 13:04:51;;;;;;;3.17;1.23;;;6.30;95.70;;;;;;4991973;28;20068;-89
2020/12/29 13:07:18;;;;;;;3.45;1.40;;;6.40;95.20;;;;;;5010562;28;20324;-87
2020/12/29 13:09:45;;;;;;;4.35;1.30;;;6.40;94.90;;;;;;5009760;28;20403;-87
2020/12/29 13:12:12;;;;;;;3.72;1.10;;;6.50;94.80;;;;;;5008320;28;20060;-88
2020/12/29 13:14:39;;;;;;;3.50;1.00;;;6.60;94.40;;;;;;4995255;28;20103;-88
2020/12/29 13:17:06;;;;;;;2.42;0.90;;;6.70;93.90;;;;;;4990804;28;20550;-90
2020/12/29 13:19:33;;;;;;;2.58;1.00;;;6.70;93.90;;;;;;4993528;28;20053;-89
2020/12/29 13:21:59;;;;;;;10.05;4.35;;;6.60;94.30;;;;;;4991106;28;20136;-88
2020/12/29 13:24:26;;;;;;;6.57;2.08;;;6.70;94.30;;;;;;4992167;28;20571;-91
2020/12/29 13:26:52;;;;;;;4.38;1.30;;;6.80;93.80;;;;;;4991470;28;20060;-91
2020/12/29 13:29:19;;;;;;;2.97;0.88;;;6.90;93.80;;;;;;4994484;28;20056;-95
2020/12/29 13:31:47;;;;;;;3.08;1.10;;;6.90;93.50;;;;;;4999029;28;20078;-91
2020/12/29 13:34:13;;;;;;;3.75;1.10;;;6.90;93.70;;;;;;4993999;28;20129;-93
2020/12/29 13:36:40;;;;;;;2.88;0.98;;;7.20;93.30;;;;;;4982872;28;20148;-90
2020/12/29 13:39:07;;;;;;;2.97;1.02;;;7.50;93.60;;;;;;5012039;28;20085;-89
2020/12/29 13:41:34;;;;;;;2.97;1.17;;;8.60;91.30;;;;;;4993667;28;20129;-89
2020/12/29 13:44:00;;;;;;;3.47;1.08;;;9.70;86.10;;;;;;5003904;28;20085;-84
2020/12/29 13:46:27;;;;;;;3.13;1.17;;;10.20;79.80;;;;;;5009696;28;20141;-86
2020/12/29 13:48:54;;;;;;;2.65;1.02;;;10.00;77.40;;;;;;5000876;28;20141;-87
2020/12/29 13:51:21;;;;;;;2.88;1.20;;;9.80;78.80;;;;;;4989795;28;20053;-87
2020/12/29 13:53:48;;;;;;;3.50;1.40;;;9.50;81.40;;;;;;4989721;28;20054;-87
2020/12/29 13:56:16;;;;;;;3.95;1.20;;;9.20;84.20;;;;;;4989977;28;20411;-87
2020/12/29 13:58:44;;;;;;;3.88;1.30;;;9.00;85.40;;;;;;4984082;28;20141;-87
2020/12/29 14:01:13;;;;;;;3.25;1.15;;;8.80;86.30;;;;;;4989053;28;20061;-89
2020/12/29 14:03:40;;;;;;;3.42;1.25;;;8.60;86.70;;;;;;4990064;28;20043;-91
2020/12/29 14:06:11;;;;;;;3.20;1.20;;;8.60;87.80;;;;;;4989444;28;20050;-87
2020/12/29 14:08:38;;;;;;;3.28;1.40;;;8.40;87.40;;;;;;4996059;28;20138;-87
2020/12/29 14:11:08;;;;;;;3.85;1.60;;;8.40;89.00;;;;;;4991981;28;20173;-87
2020/12/29 14:13:34;;;;;;;2.55;1.13;;;9.40;82.70;;;;;;4996649;28;20480;-82
2020/12/29 14:16:01;;;;;;;2.92;1.23;;;9.80;80.50;;;;;;5008451;28;20142;-83
2020/12/29 14:18:28;;;;;;;4.72;1.33;;;10.90;75.60;;;;;;5008640;28;20042;-82
2020/12/29 14:20:54;;;;;;;3.45;1.40;;;11.90;69.60;;;;;;5008619;28;20096;-85
2020/12/29 14:23:22;;;;;;;3.40;1.50;;;12.50;66.50;;;;;;5008800;28;20368;-83
2020/12/29 14:25:48;;;;;;;4.57;1.70;;;13.50;61.30;;;;;;5008724;28;20136;-83
2020/12/29 14:28:15;;;;;;;4.28;1.50;;;14.60;55.90;;;;;;5008710;28;20474;-83
2020/12/29 14:30:42;;;;;;;4.03;1.30;;;14.30;54.30;;;;;;5008414;28;20046;-83
2020/12/29 14:33:08;;;;;;;4.20;1.63;;;13.40;56.80;;;;;;4971927;28;20051;-83
2020/12/29 14:35:36;;;;;;;3.85;1.50;;;12.70;59.60;;;;;;4973232;28;20669;-84
2020/12/29 14:38:02;;;;;;;4.35;1.90;;;11.90;62.70;;;;;;4973202;28;20113;-84
2020/12/29 14:40:30;;;;;;;3.63;1.80;;;11.20;65.90;;;;;;4973608;28;20062;-84
2020/12/29 14:42:57;;;;;;;3.92;1.75;;;10.60;68.70;;;;;;4972653;28;20474;-83
2020/12/29 14:45:24;;;;;;;4.43;1.77;;;10.10;72.20;;;;;;4973248;28;20047;-83
2020/12/29 14:47:50;;;;;;;5.78;2.05;;;9.70;74.50;;;;;;4976773;28;20122;-82
2020/12/29 14:50:17;;;;;;;4.05;1.90;;;9.50;76.50;;;;;;4973472;28;20504;-84
2020/12/29 14:52:44;;;;;;;5.97;1.83;;;9.30;77.60;;;;;;4973902;28;20149;-84
2020/12/29 14:55:10;;;;;;;5.60;2.05;;;9.00;78.80;;;;;;4972733;28;20137;-83
2020/12/29 14:57:38;;;;;;;4.80;1.90;;;9.10;80.10;;;;;;4975722;28;20050;-92
2020/12/29 15:00:05;;;;;;;4.57;2.03;;;9.40;78.80;;;;;;4977669;28;20161;-96
2020/12/29 15:02:32;;;;;;;3.95;1.77;;;10.00;76.10;;;;;;4979421;28;20092;-95
2020/12/29 15:04:58;;;;;;;5.32;2.10;;;10.80;68.90;;;;;;4977647;28;20485;-95
2020/12/29 15:07:25;;;;;;;4.03;1.90;;;11.30;65.50;;;;;;4978233;28;20149;-94
2020/12/29 15:09:52;;;;;;;4.18;1.60;;;12.20;60.80;;;;;;4977637;28;20086;-96
2020/12/29 15:12:19;;;;;;;7.25;1.80;;;13.10;56.20;;;;;;4976768;28;20057;-95
2020/12/29 15:14:47;;;;;;;4.95;1.70;;;13.60;53.00;;;;;;4959881;28;20047;-93
2020/12/29 15:17:13;;;;;;;3.33;1.48;;;13.00;54.10;;;;;;4976953;28;20046;-93
2020/12/29 15:19:40;;;;;;;5.03;1.60;;;11.90;56.70;;;;;;4977397;28;20133;-94
2020/12/29 15:22:07;;;;;;;4.00;1.60;;;10.80;60.30;;;;;;4981222;28;21705;-95
2020/12/29 15:24:34;;;;;;;4.75;1.63;;;10.00;64.50;;;;;;4992631;28;20084;-95
2020/12/29 15:27:00;;;;;;;3.13;1.20;;;9.50;68.20;;;;;;4990578;28;20062;-90
2020/12/29 15:29:27;;;;;;;4.10;1.60;;;9.00;69.40;;;;;;4991660;28;20067;-96
2020/12/29 15:31:55;;;;;;;5.80;1.55;;;8.60;70.40;;;;;;4985813;28;20145;-94
2020/12/29 15:34:22;;;;;;;4.35;1.50;;;8.40;71.60;;;;;;4979376;28;20140;-95
2020/12/29 15:36:52;;;;;;;4.45;1.67;;;8.20;71.80;;;;;;4999277;28;20050;-95
2020/12/29 15:39:19;;;;;;;3.50;1.20;;;8.10;73.60;;;;;;5015530;28;20058;-96
2020/12/29 15:41:48;;;;;;;3.00;1.00;;;7.90;70.10;;;;;;4998169;28;20124;-96
2020/12/29 15:44:15;;;;;;;3.10;1.15;;;7.80;70.70;;;;;;5014950;28;20061;-96
2020/12/29 15:46:44;;;;;;;4.07;1.10;;;7.70;71.00;;;;;;4982139;28;20054;-96
2020/12/29 15:49:12;;;;;;;2.58;1.00;;;7.50;71.40;;;;;;4999148;28;20054;-95
2020/12/29 15:51:39;;;;;;;3.88;1.40;;;7.40;72.00;;;;;;5016043;28;20133;-95
2020/12/29 15:54:06;;;;;;;3.08;1.17;;;7.40;71.90;;;;;;5005189;28;20107;-96
2020/12/29 15:56:33;;;;;;;3.88;1.13;;;7.30;72.20;;;;;;4992346;28;20124;-94
2020/12/29 15:59:00;;;;;;;4.32;0.95;;;7.20;71.70;;;;;;4979337;28;20145;-96
2020/12/29 16:01:28;;;;;;;3.35;1.10;;;7.10;71.90;;;;;;5008654;28;20081;-96
2020/12/29 16:03:56;;;;;;;4.63;1.40;;;7.20;72.00;;;;;;4995421;28;20484;-96
2020/12/29 16:06:30;;;;;;;3.67;1.58;;;7.10;72.90;;;;;;4993143;28;20058;-96
2020/12/29 16:08:57;;;;;;;3.05;1.20;;;6.90;73.00;;;;;;5003624;28;20150;-95
2020/12/29 16:11:24;;;;;;;7.57;3.13;;;6.90;73.50;;;;;;4997591;28;20072;-96
2020/12/29 16:13:51;;;;;;;12.95;5.38;;;6.80;73.30;;;;;;4997735;28;20058;-96
2020/12/29 16:16:17;;;;;;;5.80;2.13;;;6.90;74.20;;;;;;4983180;28;20056;-96
2020/12/29 16:18:44;;;;;;;4.20;1.45;;;6.80;73.90;;;;;;4994736;28;20133;-96
2020/12/29 16:21:11;;;;;;;3.78;1.67;;;6.60;73.30;;;;;;4986012;28;20141;-96
2020/12/29 16:23:38;;;;;;;3.65;1.58;;;6.70;73.50;;;;;;4994020;28;20157;-96
2020/12/29 16:26:06;;;;;;;3.95;1.45;;;6.70;73.60;;;;;;5001579;28;20074;-96
2020/12/29 16:28:34;;;;;;;4.18;1.40;;;6.70;73.90;;;;;;5013058;28;20049;-96
2020/12/29 16:31:00;;;;;;;3.30;1.20;;;6.70;74.00;;;;;;5001387;28;20064;-96
2020/12/29 16:33:27;;;;;;;4.20;1.42;;;6.70;73.90;;;;;;5005504;28;20492;-96
2020/12/29 16:35:55;;;;;;;5.20;1.83;;;6.70;73.30;;;;;;5003812;28;20472;-96
2020/12/29 16:38:22;;;;;;;5.15;1.73;;;6.70;73.40;;;;;;5009172;28;20132;-96
2020/12/29 16:40:49;;;;;;;5.05;1.65;;;6.60;72.00;;;;;;5018798;28;20054;-96
2020/12/29 16:43:16;;;;;;;3.97;1.60;;;6.70;72.00;;;;;;5003217;28;20050;-96
2020/12/29 16:45:43;;;;;;;4.05;1.52;;;6.60;72.30;;;;;;5013537;28;20141;-96
2020/12/29 16:48:10;;;;;;;4.32;1.50;;;6.60;71.10;;;;;;5011602;28;20137;-96
2020/12/29 16:50:36;;;;;;;4.20;1.20;;;6.60;71.40;;;;;;4995688;28;20052;-95
2020/12/29 16:53:04;;;;;;;3.03;1.10;;;6.60;70.80;;;;;;4982877;28;20447;-96
2020/12/29 16:55:30;;;;;;;2.85;1.10;;;6.60;70.70;;;;;;4990903;28;20054;-96
2020/12/29 16:57:58;;;;;;;4.47;1.40;;;6.60;70.70;;;;;;4988092;28;20088;-96
2020/12/29 17:00:25;;;;;;;4.20;1.13;;;6.60;70.70;;;;;;4983340;28;20081;-96
2020/12/29 17:02:52;;;;;;;3.53;1.00;;;6.50;70.50;;;;;;4961407;28;20058;-96
2020/12/29 17:05:18;;;;;;;3.70;1.20;;;6.60;70.10;;;;;;5009907;28;20054;-96
2020/12/29 17:07:45;;;;;;;3.03;1.00;;;6.60;70.10;;;;;;5001453;28;20145;-95
2020/12/29 17:10:12;;;;;;;3.10;1.08;;;6.50;70.10;;;;;;5008665;28;20149;-96
2020/12/29 17:12:38;;;;;;;3.10;1.00;;;6.50;70.40;;;;;;4977540;28;20185;-95
2020/12/29 17:15:06;;;;;;;3.17;1.27;;;6.40;70.20;;;;;;5009789;28;20133;-95
2020/12/29 17:17:34;;;;;;;5.22;1.60;;;6.40;70.20;;;;;;4981855;28;20484;-95
2020/12/29 17:20:01;;;;;;;3.10;1.38;;;6.50;70.40;;;;;;4993779;28;20413;-95
2020/12/29 17:22:27;;;;;;;4.18;1.30;;;6.40;70.20;;;;;;4979180;28;20205;-96
2020/12/29 17:24:54;;;;;;;2.92;1.00;;;6.40;70.30;;;;;;4976860;28;20078;-96
2020/12/29 17:27:25;;;;;;;3.33;1.00;;;6.40;70.60;;;;;;4998468;28;20601;-94
2020/12/29 17:29:52;;;;;;;3.78;1.15;;;6.40;70.70;;;;;;4995956;28;20138;-94
2020/12/29 17:32:19;;;;;;;4.50;1.50;;;6.40;70.20;;;;;;4987258;28;20697;-95
2020/12/29 17:34:48;;;;;;;5.07;1.42;;;6.50;70.70;;;;;;4994146;28;20054;-93
2020/12/29 17:37:14;;;;;;;3.28;1.20;;;6.50;71.30;;;;;;4994115;28;20050;-93
2020/12/29 17:39:41;;;;;;;3.15;1.40;;;6.50;70.50;;;;;;5013022;28;20082;-94
2020/12/29 17:42:07;;;;;;;4.20;1.52;;;6.50;70.60;;;;;;5014233;28;20061;-92
2020/12/29 17:44:34;;;;;;;3.60;1.45;;;6.50;70.20;;;;;;5028658;28;20048;-90
2020/12/29 17:47:01;;;;;;;6.47;2.60;;;6.60;70.80;;;;;;5012343;28;20090;-91
2020/12/29 17:49:28;;;;;;;4.13;1.70;;;6.50;70.00;;;;;;4988118;28;20074;-91
2020/12/29 17:51:56;;;;;;;4.28;1.65;;;6.60;70.00;;;;;;5005052;28;20076;-88
2020/12/29 17:54:22;;;;;;;4.40;1.60;;;6.60;70.90;;;;;;5011003;28;20077;-90
2020/12/29 17:56:49;;;;;;;4.47;1.67;;;6.60;71.40;;;;;;5006007;28;20141;-91
2020/12/29 17:59:16;;;;;;;4.15;1.70;;;6.60;71.10;;;;;;5005253;28;20108;-90
2020/12/29 18:01:44;;;;;;;4.47;1.52;;;6.50;70.30;;;;;;5003815;28;20070;-93
2020/12/29 18:04:11;;;;;;;4.88;1.38;;;6.50;70.70;;;;;;5008145;28;20784;-90
2020/12/29 18:06:38;;;;;;;9.07;2.67;;;6.50;71.60;;;;;;5006145;28;20152;-90
2020/12/29 18:09:05;;;;;;;10.48;4.28;;;6.60;71.70;;;;;;5009375;28;20070;-91
2020/12/29 18:11:32;;;;;;;10.48;4.65;;;6.50;71.70;;;;;;5001801;28;20105;-91
2020/12/29 18:13:59;;;;;;;7.32;2.95;;;6.50;71.90;;;;;;4992417;28;20053;-92
2020/12/29 18:16:26;;;;;;;6.13;2.60;;;6.50;71.90;;;;;;4990792;28;20141;-92
2020/12/29 18:18:53;;;;;;;5.03;1.90;;;6.60;71.90;;;;;;4993568;28;20061;-92
2020/12/29 18:21:19;;;;;;;4.72;1.65;;;6.40;72.20;;;;;;4976969;28;20137;-92
2020/12/29 18:23:47;;;;;;;4.03;1.50;;;6.40;73.20;;;;;;5000410;28;20037;-92
2020/12/29 18:26:18;;;;;;;4.18;1.35;;;6.20;73.80;;;;;;5000818;28;20144;-92
2020/12/29 18:28:46;;;;;;;3.03;1.20;;;6.30;74.40;;;;;;4998408;28;20133;-92
2020/12/29 18:31:12;;;;;;;3.88;1.42;;;6.30;75.70;;;;;;4992235;28;20141;-92
2020/12/29 18:33:39;;;;;;;3.38;1.48;;;6.30;76.00;;;;;;4992078;28;20050;-90
2020/12/29 18:36:06;;;;;;;4.25;1.45;;;6.20;75.40;;;;;;4995805;28;20126;-94
2020/12/29 18:38:34;;;;;;;4.68;1.88;;;6.30;75.20;;;;;;4988888;28;20050;-95
2020/12/29 18:41:01;;;;;;;3.75;1.27;;;6.20;75.10;;;;;;4995205;28;20415;-91
2020/12/29 18:43:28;;;;;;;4.15;1.42;;;6.00;75.00;;;;;;4994499;28;20480;-93
2020/12/29 18:45:55;;;;;;;3.95;1.58;;;6.20;76.80;;;;;;5002435;28;20077;-93
2020/12/29 18:48:22;;;;;;;5.13;1.65;;;6.10;77.60;;;;;;4983034;28;20078;-93
2020/12/29 18:50:49;;;;;;;3.90;1.58;;;6.00;77.20;;;;;;4987733;28;20182;-93
2020/12/29 18:53:16;;;;;;;3.22;1.40;;;6.10;77.70;;;;;;4980666;28;20169;-94
2020/12/29 18:55:43;;;;;;;3.90;1.40;;;6.00;77.80;;;;;;4987986;28;20065;-94
2020/12/29 18:58:11;;;;;;;5.30;2.35;;;6.00;77.50;;;;;;4988800;28;20517;-94
2020/12/29 19:00:38;;;;;;;4.07;2.10;;;6.00;78.30;;;;;;4975489;28;20133;-93
2020/12/29 19:03:05;;;;;;;4.00;1.58;;;6.10;78.60;;;;;;4991701;28;20082;-94
2020/12/29 19:05:32;;;;;;;3.50;1.33;;;6.00;78.40;;;;;;4991752;28;20101;-93
2020/12/29 19:07:58;;;;;;;4.88;1.38;;;5.90;78.50;;;;;;5003987;28;20121;-93
2020/12/29 19:10:25;;;;;;;3.67;1.42;;;6.00;79.30;;;;;;4992113;28;20054;-94
2020/12/29 19:12:52;;;;;;;6.82;2.58;;;5.90;79.30;;;;;;4991463;28;20137;-89
2020/12/29 19:15:20;;;;;;;4.53;2.15;;;5.90;78.70;;;;;;4980203;28;20411;-93
2020/12/29 19:17:47;;;;;;;4.82;1.83;;;6.00;79.30;;;;;;5009797;28;20077;-93
2020/12/29 19:20:14;;;;;;;3.92;1.58;;;5.90;79.40;;;;;;5004583;28;20054;-91
2020/12/29 19:22:40;;;;;;;6.15;2.22;;;5.90;81.40;;;;;;4997762;28;20831;-89
2020/12/29 19:25:07;;;;;;;5.05;1.98;;;5.70;82.90;;;;;;5013662;28;20093;-90
2020/12/29 19:27:34;;;;;;;4.07;1.83;;;5.50;83.60;;;;;;5001182;28;20096;-92
2020/12/29 19:30:00;;;;;;;4.70;1.95;;;5.50;83.50;;;;;;5014019;28;20486;-92
2020/12/29 19:32:32;;;;;;;5.78;2.42;;;5.40;85.00;;;;;;5004312;28;20110;-91
2020/12/29 19:34:59;;;;;;;4.60;2.00;;;5.30;85.50;;;;;;5005649;28;20133;-91
2020/12/29 19:37:25;;;;;;;5.47;2.05;;;5.30;86.00;;;;;;4998583;28;20154;-88
2020/12/29 19:39:53;;;;;;;4.93;2.08;;;5.30;83.20;;;;;;5015198;28;20066;-89
2020/12/29 19:42:20;;;;;;;6.38;2.88;;;5.10;84.80;;;;;;5018141;28;20136;-89
2020/12/29 19:44:46;;;;;;;7.28;2.50;;;5.10;87.50;;;;;;5013918;28;20077;-90
2020/12/29 19:47:14;;;;;;;6.88;3.20;;;5.10;86.50;;;;;;5011643;28;20614;-90
2020/12/29 19:49:42;;;;;;;4.95;2.13;;;5.30;86.60;;;;;;4999352;28;20050;-92
2020/12/29 19:52:09;;;;;;;6.95;2.10;;;5.20;87.80;;;;;;5011796;28;20088;-91
2020/12/29 19:54:35;;;;;;;5.97;1.98;;;5.30;88.00;;;;;;4995520;28;20060;-90
2020/12/29 19:57:03;;;;;;;5.90;2.15;;;5.20;87.50;;;;;;5005210;28;20185;-91
2020/12/29 19:59:29;;;;;;;9.63;3.35;;;5.30;87.30;;;;;;5000238;28;20054;-93
2020/12/29 20:01:58;;;;;;;7.00;3.00;;;5.30;86.90;;;;;;5017310;28;20077;-89
2020/12/29 20:04:24;;;;;;;5.88;2.35;;;5.30;86.50;;;;;;5019049;28;20061;-90
2020/12/29 20:06:52;;;;;;;5.05;2.10;;;5.30;88.00;;;;;;5005395;28;20174;-92
2020/12/29 20:09:19;;;;;;;5.90;2.03;;;5.20;87.60;;;;;;5000422;28;20133;-89
2020/12/29 20:11:45;;;;;;;5.70;1.60;;;5.20;88.10;;;;;;5012946;28;20470;-89
2020/12/29 20:14:12;;;;;;;4.47;1.80;;;5.10;87.50;;;;;;5005415;28;20463;-90
2020/12/29 20:16:38;;;;;;;4.53;1.92;;;5.10;88.10;;;;;;4994218;28;20113;-89
2020/12/29 20:19:05;;;;;;;7.07;2.00;;;5.10;88.90;;;;;;4995401;28;20571;-90
2020/12/29 20:21:32;;;;;;;6.88;2.47;;;5.10;88.70;;;;;;5008379;28;20060;-89
2020/12/29 20:23:59;;;;;;;7.40;3.90;;;5.10;89.00;;;;;;5004378;28;20135;-89
2020/12/29 20:26:26;;;;;;;9.48;4.82;;;5.10;89.20;;;;;;5000024;28;20061;-89
2020/12/29 20:28:56;;;;;;;9.93;5.05;;;5.00;88.70;;;;;;5007077;28;20137;-88
2020/12/29 20:37:09;;;;;;;7.35;3.90;;;4.70;90.40;;;;;;4992236;28;20534;-88
2020/12/29 20:46:25;;;;;;;10.88;5.03;;;4.70;89.40;;;;;;5553212;23;20117;-87
2020/12/29 20:48:52;;;;;;;9.40;4.20;;;4.80;89.20;;;;;;4990033;28;20066;-91
2020/12/29 20:51:23;;;;;;;12.90;6.65;;;4.70;90.20;;;;;;4989598;28;20046;-94
2020/12/29 20:53:52;;;;;;;12.68;7.40;;;4.60;89.40;;;;;;4981263;28;20065;-92
2020/12/29 20:56:19;;;;;;;10.20;5.80;;;4.70;89.50;;;;;;4978272;28;20069;-90
2020/12/29 20:58:48;;;;;;;10.40;4.72;;;4.70;89.30;;;;;;4968075;28;20574;-91
2020/12/29 21:01:15;;;;;;;11.20;6.07;;;4.70;89.70;;;;;;4981969;28;20050;-89
2020/12/29 21:03:53;;;;;;;8.38;5.07;;;4.80;89.60;;;;;;4980612;28;20137;-91
2020/12/29 21:06:52;;;;;;;10.40;4.82;;;4.70;89.80;;;;;;4976735;28;20057;-87
2020/12/29 21:14:50;;;;;;;7.95;3.90;;;4.30;91.00;;;;;;5114315;23;20069;-89
2020/12/29 21:17:17;;;;;;;8.43;4.13;;;4.30;90.70;;;;;;4961283;28;20142;-90
2020/12/29 21:19:47;;;;;;;8.45;3.83;;;4.40;91.20;;;;;;4954176;28;20449;-91
2020/12/29 21:22:14;;;;;;;7.97;3.30;;;4.50;90.80;;;;;;4952908;28;20102;-92
2020/12/29 21:24:41;;;;;;;8.10;3.58;;;4.60;90.90;;;;;;4957457;28;20047;-90
2020/12/29 21:27:07;;;;;;;7.60;3.70;;;4.70;90.80;;;;;;4965043;28;20889;-89
2020/12/29 21:29:34;;;;;;;6.53;3.38;;;4.90;90.60;;;;;;4982983;28;20535;-90
2020/12/29 21:32:00;;;;;;;8.30;3.97;;;4.90;90.60;;;;;;4984270;28;20043;-91
2020/12/29 21:34:29;;;;;;;7.78;4.10;;;5.00;91.10;;;;;;4988661;28;20510;-90
2020/12/29 21:36:57;;;;;;;8.77;3.95;;;4.90;91.00;;;;;;4971175;28;20067;-88
2020/12/29 21:39:23;;;;;;;7.63;3.67;;;4.90;90.60;;;;;;4968684;28;20095;-87